Greenville Downtown Airport
KGMU : now visible

Airfield :











YOU CAN JOIN US ON...

 
LOGIN :

Register | Disclaimer

   EN    FR    IT 

 









Legend :    VFR   Marginal VFR   IFR   Intensive IFR   Very Intensive IFR
Visi :
Ceiling :
>= 8 km
>= 3000ft
5 to 8 km
1000 to 3000 ft
1500m to 5 km
500 to 1000 ft
800 to 1500m
200 to 500 ft
< 800m
< 200 ft
Symbols :   Thunderstorms  Fog  Heavy snow  Heavy precipitations  Wind > 20 kt






- Airport Elevation : 1048 ft


KGMU - Greenville Downtown

CURRENT METAR :
  • 142253Z 21006KT 10SM CLR 29/21 A2993 RMK AO2 SLP122 T02940211

EXPIRED METARs :
  • 142153Z 21007KT 10SM FEW039 30/21 A2993 RMK AO2 SLP122 T03000206
  • 142053Z 23005KT 10SM FEW060 31/21 A2994 RMK AO2 SLP125 T03110206 56019

TAF KGMU
Valid from the 14 at 22:00 until the 15 at 18:00 UTC


142200Z 1422/1518 21007KT P6SM VCSH FEW035 BKN050
TEMPO 1500/1504 4SM TSRA BR OVC035CB
FM150500 16003KT 5SM BR VCSH BKN015
FM150700 24003KT 4SM BR BKN012
FM151400 24004KT P6SM BKN015
KZTL FIR / North America



MET'MAP, your aeronautical weather chart ! - Copyright ORBIFLY December 2007 - Disclaimer

ORBIFLY MET'MAP TEAM :

Programming & Development : Alexandra Zaïnal
Concept & original design : Baudouin d'Aumeries
Assistance for programming : Marc-Olivier Méhu
Technical & hardware support : Manuel Goepfert

Contact : metmap@orbifly.com




SOURCES & CREDITS :

   NOAA       Earth
Advisory